createdAt,value
2018-09-11T00:00:25.955Z,0.00
2018-09-11T00:01:25.979Z,0.00
2018-09-11T00:02:26.009Z,0.00
2018-09-11T00:03:26.025Z,0.00
2018-09-11T00:04:26.055Z,0.00
2018-09-11T00:05:26.082Z,0.00
2018-09-11T00:06:26.105Z,0.00
2018-09-11T00:07:26.123Z,0.00
2018-09-11T00:08:26.147Z,0.00
2018-09-11T00:09:26.163Z,0.00
2018-09-11T00:10:26.187Z,0.00
2018-09-11T00:11:26.213Z,0.00
2018-09-11T00:12:26.243Z,0.00
2018-09-11T00:13:26.259Z,0.00
2018-09-11T00:14:26.279Z,0.00
2018-09-11T00:15:26.317Z,0.00
2018-09-11T00:16:26.327Z,0.00
2018-09-11T00:17:26.352Z,0.00
2018-09-11T00:18:26.373Z,0.00
2018-09-11T00:19:26.401Z,0.00
2018-09-11T00:20:26.417Z,0.00
2018-09-11T00:21:26.441Z,0.00
2018-09-11T00:22:26.470Z,0.00
2018-09-11T00:23:26.490Z,0.00
2018-09-11T00:24:26.517Z,0.00
2018-09-11T00:25:26.539Z,0.00
2018-09-11T00:26:26.565Z,0.00
2018-09-11T00:27:26.584Z,0.00
2018-09-11T00:28:26.605Z,0.00
2018-09-11T00:29:26.635Z,0.00
2018-09-11T00:30:26.652Z,0.00
2018-09-11T00:31:26.675Z,0.00
2018-09-11T00:32:26.705Z,0.00
2018-09-11T00:33:26.728Z,0.00
2018-09-11T00:34:26.752Z,0.00
2018-09-11T00:35:26.769Z,0.00
2018-09-11T00:36:26.793Z,0.00
2018-09-11T00:37:26.817Z,0.00
2018-09-11T00:38:26.839Z,0.00
2018-09-11T00:39:26.871Z,0.00
2018-09-11T00:40:26.884Z,0.00
2018-09-11T00:41:26.915Z,0.00
2018-09-11T00:42:26.934Z,0.00
2018-09-11T00:43:26.955Z,0.00
2018-09-11T00:44:26.987Z,0.00
2018-09-11T00:45:27.003Z,0.00
2018-09-11T00:46:27.027Z,0.00
2018-09-11T00:47:27.055Z,0.00
2018-09-11T00:48:27.070Z,0.00
2018-09-11T00:49:27.100Z,0.00
2018-09-11T00:50:27.121Z,0.00
2018-09-11T00:51:27.143Z,0.00
2018-09-11T00:52:27.169Z,0.00
2018-09-11T00:53:27.193Z,0.00
2018-09-11T00:54:27.221Z,0.00
2018-09-11T00:55:27.242Z,0.00
2018-09-11T00:56:27.267Z,0.00
2018-09-11T00:57:27.284Z,0.00
2018-09-11T00:58:27.307Z,0.00
2018-09-11T00:59:27.335Z,0.00
2018-09-11T01:00:27.362Z,0.00
2018-09-11T01:01:27.425Z,0.00
2018-09-11T01:02:27.407Z,0.00
2018-09-11T01:03:27.423Z,0.00
2018-09-11T01:04:27.446Z,0.00
2018-09-11T01:05:27.479Z,0.00
2018-09-11T01:06:27.493Z,0.00
2018-09-11T01:07:27.515Z,0.00
2018-09-11T01:08:27.549Z,0.00
2018-09-11T01:09:27.567Z,0.00
2018-09-11T01:10:27.591Z,0.00
2018-09-11T01:11:27.610Z,0.00
2018-09-11T01:12:27.639Z,0.00
2018-09-11T01:13:27.664Z,0.00
2018-09-11T01:14:27.682Z,0.00
2018-09-11T01:15:27.703Z,0.00
2018-09-11T01:16:27.727Z,0.00
2018-09-11T01:17:27.753Z,0.00
2018-09-11T01:18:27.774Z,0.00
2018-09-11T01:19:27.799Z,0.00
2018-09-11T01:20:27.822Z,0.00
2018-09-11T01:21:27.847Z,0.00
2018-09-11T01:22:27.874Z,0.00
2018-09-11T01:23:27.894Z,0.00
2018-09-11T01:24:27.919Z,0.00
2018-09-11T01:25:27.934Z,0.00
2018-09-11T01:26:27.963Z,0.00
2018-09-11T01:27:27.987Z,0.00
2018-09-11T01:28:28.008Z,0.00
2018-09-11T01:29:28.032Z,0.00
2018-09-11T01:30:28.053Z,0.00
2018-09-11T01:31:28.082Z,0.00
2018-09-11T01:32:28.100Z,0.00
2018-09-11T01:33:28.134Z,0.00
2018-09-11T01:34:28.147Z,0.00
2018-09-11T01:35:28.172Z,0.00
2018-09-11T01:36:28.194Z,0.00
2018-09-11T01:37:28.218Z,0.00
2018-09-11T01:38:28.244Z,0.00
2018-09-11T01:39:28.279Z,0.00
2018-09-11T01:40:28.284Z,0.00
2018-09-11T01:41:28.318Z,0.00
2018-09-11T01:42:28.333Z,0.00
2018-09-11T01:43:28.355Z,0.00
2018-09-11T01:44:28.381Z,0.00
2018-09-11T01:45:28.408Z,0.00
2018-09-11T01:46:28.426Z,0.00
2018-09-11T01:47:28.446Z,0.00
2018-09-11T01:48:28.475Z,0.00
2018-09-11T01:49:28.497Z,0.00
2018-09-11T01:50:28.524Z,0.00
2018-09-11T01:51:28.546Z,0.00
2018-09-11T01:52:28.567Z,0.00
2018-09-11T01:53:28.593Z,0.00
2018-09-11T01:54:28.609Z,0.00
2018-09-11T01:55:28.637Z,0.00
2018-09-11T01:56:28.664Z,0.00
2018-09-11T01:57:28.691Z,0.00
2018-09-11T01:58:28.707Z,0.00
2018-09-11T01:59:28.733Z,0.00
2018-09-11T02:00:28.751Z,0.00
2018-09-11T02:01:28.773Z,0.00
2018-09-11T02:02:28.798Z,0.00
2018-09-11T02:03:28.823Z,0.00
2018-09-11T02:04:28.846Z,0.00
2018-09-11T02:05:28.875Z,0.00
2018-09-11T02:06:28.891Z,0.00
2018-09-11T02:07:28.917Z,0.00
2018-09-11T02:08:28.942Z,0.00
2018-09-11T02:09:28.973Z,0.00
2018-09-11T02:10:28.987Z,0.00
2018-09-11T02:11:29.005Z,0.00
2018-09-11T02:12:29.035Z,0.00
2018-09-11T02:13:29.057Z,0.00
2018-09-11T02:14:29.078Z,0.00
2018-09-11T02:15:29.097Z,0.00
2018-09-11T02:16:29.123Z,0.00
2018-09-11T02:17:29.156Z,0.00
2018-09-11T02:18:29.171Z,0.00
2018-09-11T02:19:29.194Z,0.00
2018-09-11T02:20:29.219Z,0.00
2018-09-11T02:21:29.241Z,0.00
2018-09-11T02:22:29.271Z,0.00
2018-09-11T02:23:29.292Z,0.00
2018-09-11T02:24:29.311Z,0.00
2018-09-11T02:25:29.341Z,0.00
2018-09-11T02:26:29.361Z,0.00
2018-09-11T02:27:29.377Z,0.00
2018-09-11T02:28:29.406Z,0.00
2018-09-11T02:29:29.434Z,0.00
2018-09-11T02:30:29.453Z,0.00
2018-09-11T02:31:29.481Z,0.00
2018-09-11T02:32:29.499Z,0.00
2018-09-11T02:33:29.523Z,0.00
2018-09-11T02:34:29.543Z,0.00
2018-09-11T02:35:29.565Z,0.00
2018-09-11T02:36:29.594Z,0.00
2018-09-11T02:37:29.618Z,0.00
2018-09-11T02:38:29.637Z,0.00
2018-09-11T02:39:29.673Z,0.00
2018-09-11T02:40:29.683Z,0.00
2018-09-11T02:41:29.720Z,0.00
2018-09-11T02:42:29.727Z,0.00
2018-09-11T02:43:29.753Z,0.00
2018-09-11T02:44:29.783Z,0.00
2018-09-11T02:45:29.803Z,0.00
2018-09-11T02:46:29.829Z,0.00
2018-09-11T02:47:29.853Z,0.00
2018-09-11T02:48:29.869Z,0.00
2018-09-11T02:49:29.895Z,0.00
2018-09-11T02:50:29.918Z,0.00
2018-09-11T02:51:29.941Z,0.00
2018-09-11T02:52:29.967Z,0.00
2018-09-11T02:53:29.985Z,0.00
2018-09-11T02:54:30.009Z,0.00
2018-09-11T02:55:30.031Z,0.00
2018-09-11T02:56:30.055Z,0.00
2018-09-11T02:57:30.080Z,0.00
2018-09-11T02:58:31.517Z,0.00
2018-09-11T02:59:31.535Z,0.00
2018-09-11T03:00:30.141Z,0.00
2018-09-11T03:01:30.167Z,0.00
2018-09-11T03:02:30.197Z,0.00
2018-09-11T03:03:30.213Z,0.00
2018-09-11T03:04:30.231Z,0.00
2018-09-11T03:05:30.262Z,0.00
2018-09-11T03:06:30.287Z,0.00
2018-09-11T03:07:30.306Z,0.00
2018-09-11T03:08:30.325Z,0.00
2018-09-11T03:09:30.349Z,0.00
2018-09-11T03:10:30.370Z,0.00
2018-09-11T03:11:30.387Z,0.00
2018-09-11T03:12:30.414Z,0.00
2018-09-11T03:13:30.636Z,0.00
2018-09-11T03:14:30.456Z,0.00
2018-09-11T03:17:30.529Z,0.00
2018-09-11T03:20:30.594Z,0.00
2018-09-11T03:21:30.611Z,0.00
2018-09-11T03:22:30.634Z,0.00
2018-09-11T03:23:30.662Z,0.00
2018-09-11T03:24:30.682Z,0.00
2018-09-11T03:25:30.715Z,0.00
2018-09-11T03:26:30.728Z,0.00
2018-09-11T03:27:30.750Z,0.00
2018-09-11T03:28:30.764Z,0.00
2018-09-11T03:29:30.791Z,0.00
2018-09-11T03:30:30.813Z,0.00
2018-09-11T03:31:30.841Z,0.00
2018-09-11T03:32:30.855Z,0.00
2018-09-11T03:33:30.880Z,0.00
2018-09-11T03:34:30.898Z,0.00
2018-09-11T03:35:30.924Z,0.00
2018-09-11T03:36:30.948Z,0.00
2018-09-11T03:37:30.972Z,0.00
2018-09-11T03:38:30.988Z,0.00
2018-09-11T03:39:31.014Z,0.00
2018-09-11T03:40:31.036Z,0.00
2018-09-11T03:41:31.056Z,0.00
2018-09-11T03:42:31.084Z,0.00
2018-09-11T03:43:31.104Z,0.00
2018-09-11T03:44:31.125Z,0.00
2018-09-11T03:45:31.150Z,0.00
2018-09-11T03:46:31.173Z,0.00
2018-09-11T03:47:31.191Z,0.00
2018-09-11T03:48:31.221Z,0.00
2018-09-11T03:49:31.236Z,0.00
2018-09-11T03:50:31.256Z,0.00
2018-09-11T03:51:31.280Z,0.00
2018-09-11T03:52:31.306Z,0.00
2018-09-11T03:53:31.328Z,0.00
2018-09-11T03:54:31.352Z,0.00
2018-09-11T03:55:31.375Z,0.00
2018-09-11T03:56:31.397Z,0.00
2018-09-11T03:57:31.416Z,0.00
2018-09-11T03:58:31.440Z,0.00
2018-09-11T03:59:31.466Z,0.00
2018-09-11T04:00:31.487Z,0.00
2018-09-11T04:01:31.510Z,0.00
2018-09-11T04:02:31.526Z,0.00
2018-09-11T04:03:31.552Z,0.00
2018-09-11T04:04:31.580Z,0.00
2018-09-11T04:05:31.712Z,0.00
2018-09-11T04:06:31.624Z,0.00
2018-09-11T04:07:31.639Z,0.00
2018-09-11T04:08:31.670Z,0.00
2018-09-11T04:09:31.689Z,0.00
2018-09-11T04:10:31.712Z,0.00
2018-09-11T04:11:31.732Z,0.00
2018-09-11T04:12:31.760Z,0.00
2018-09-11T04:13:31.784Z,0.00
2018-09-11T04:14:31.802Z,0.00
2018-09-11T04:15:31.824Z,0.00
2018-09-11T04:16:31.855Z,0.00
2018-09-11T04:17:31.869Z,0.00
2018-09-11T04:18:31.888Z,0.00
2018-09-11T04:19:31.914Z,0.00
2018-09-11T04:20:31.937Z,0.00
2018-09-11T04:21:31.966Z,0.00
2018-09-11T04:22:31.983Z,0.00
2018-09-11T04:23:32.012Z,0.00
2018-09-11T04:24:32.026Z,0.00
2018-09-11T04:25:32.096Z,0.00
2018-09-11T04:26:32.075Z,0.00
2018-09-11T04:27:32.092Z,0.00
2018-09-11T04:28:32.123Z,0.00
2018-09-11T04:29:32.144Z,0.00
2018-09-11T04:30:32.164Z,0.00
2018-09-11T04:31:32.188Z,0.00
2018-09-11T04:32:32.211Z,0.00
2018-09-11T04:33:32.232Z,0.00
2018-09-11T04:34:32.256Z,0.00
2018-09-11T04:35:32.282Z,0.00
2018-09-11T04:36:32.329Z,0.00
2018-09-11T04:37:32.324Z,0.00
2018-09-11T04:38:32.348Z,0.00
2018-09-11T04:39:32.370Z,0.00
2018-09-11T04:40:32.394Z,0.00
2018-09-11T04:41:32.418Z,0.00
2018-09-11T04:42:32.436Z,0.00
2018-09-11T04:43:32.457Z,0.00
2018-09-11T04:44:32.484Z,0.00
2018-09-11T04:45:32.511Z,0.00
2018-09-11T04:46:32.539Z,0.00
2018-09-11T04:47:32.555Z,0.00
2018-09-11T04:48:32.573Z,0.00
2018-09-11T04:49:32.592Z,0.00
2018-09-11T04:50:32.613Z,0.00
2018-09-11T04:51:32.646Z,0.00
2018-09-11T04:52:32.661Z,0.00
2018-09-11T04:53:32.685Z,0.00
2018-09-11T04:54:32.714Z,5.63
2018-09-11T04:55:32.727Z,5.63
2018-09-11T04:56:32.756Z,5.63
2018-09-11T04:57:32.774Z,5.63
2018-09-11T04:58:32.795Z,5.63
2018-09-11T04:59:32.825Z,5.63
2018-09-11T05:00:32.842Z,5.63
2018-09-11T05:01:32.866Z,5.63
2018-09-11T05:02:32.894Z,11.25
2018-09-11T05:03:32.916Z,11.25
2018-09-11T05:04:32.936Z,11.25
2018-09-11T05:05:32.960Z,11.25
2018-09-11T05:06:32.975Z,11.25
2018-09-11T05:07:33.002Z,11.25
2018-09-11T05:08:33.027Z,11.25
2018-09-11T05:09:33.047Z,11.25
2018-09-11T05:10:33.067Z,16.88
2018-09-11T05:11:33.091Z,16.88
2018-09-11T05:12:33.112Z,16.88
2018-09-11T05:13:33.144Z,16.88
2018-09-11T05:14:33.154Z,22.50
2018-09-11T05:15:33.182Z,22.50
2018-09-11T05:16:33.203Z,22.50
2018-09-11T05:17:33.224Z,28.13
2018-09-11T05:18:33.248Z,28.13
2018-09-11T05:19:33.266Z,28.13
2018-09-11T05:20:33.295Z,28.13
2018-09-11T05:21:33.313Z,33.75
2018-09-11T05:22:33.330Z,33.75
2018-09-11T05:23:33.352Z,39.38
2018-09-11T05:24:33.376Z,39.38
2018-09-11T05:25:33.402Z,45.00
2018-09-11T05:26:33.424Z,45.00
2018-09-11T05:27:33.566Z,50.63
2018-09-11T05:28:33.466Z,56.25
2018-09-11T05:29:33.490Z,56.25
2018-09-11T05:30:33.516Z,61.88
2018-09-11T05:31:33.526Z,67.50
2018-09-11T05:32:33.555Z,73.13
2018-09-11T05:33:33.576Z,78.75
2018-09-11T05:34:33.593Z,78.75
2018-09-11T05:35:33.621Z,84.38
2018-09-11T05:36:33.643Z,84.38
2018-09-11T05:37:33.665Z,84.38
2018-09-11T05:38:33.684Z,84.38
2018-09-11T05:39:33.743Z,90.00
2018-09-11T05:40:33.734Z,90.00
2018-09-11T05:41:33.752Z,95.63
2018-09-11T05:42:33.771Z,101.25
2018-09-11T05:43:33.794Z,101.25
2018-09-11T05:44:33.822Z,101.25
2018-09-11T05:45:33.883Z,106.88
2018-09-11T05:46:33.867Z,106.88
2018-09-11T05:47:33.895Z,106.88
2018-09-11T05:48:33.915Z,112.50
2018-09-11T05:49:33.932Z,112.50
2018-09-11T05:50:33.956Z,118.13
2018-09-11T05:51:33.976Z,129.38
2018-09-11T05:52:33.999Z,135.00
2018-09-11T05:53:34.019Z,146.25
2018-09-11T05:54:34.043Z,157.50
2018-09-11T05:55:34.059Z,163.13
2018-09-11T05:56:34.090Z,163.13
2018-09-11T05:57:34.109Z,163.13
2018-09-11T05:58:34.257Z,163.13
2018-09-11T05:59:34.161Z,168.75
2018-09-11T06:00:34.177Z,180.00
2018-09-11T06:01:34.200Z,180.00
2018-09-11T06:02:34.222Z,185.63
2018-09-11T06:03:34.244Z,191.25
2018-09-11T06:04:34.363Z,191.25
2018-09-11T06:05:34.309Z,191.25
2018-09-11T06:06:34.311Z,180.00
2018-09-11T06:07:34.341Z,174.38
2018-09-11T06:08:34.362Z,168.75
2018-09-11T06:09:34.377Z,168.75
2018-09-11T06:10:34.400Z,163.13
2018-09-11T06:11:34.423Z,157.50
2018-09-11T06:12:34.449Z,157.50
2018-09-11T06:13:34.476Z,163.13
2018-09-11T06:14:34.493Z,174.38
2018-09-11T06:15:34.523Z,174.38
2018-09-11T06:16:34.547Z,180.00
2018-09-11T06:17:34.564Z,180.00
2018-09-11T06:18:34.591Z,174.38
2018-09-11T06:19:34.614Z,174.38
2018-09-11T06:20:34.642Z,174.38
2018-09-11T06:21:34.657Z,168.75
2018-09-11T06:22:34.676Z,168.75
2018-09-11T06:23:34.701Z,163.13
2018-09-11T06:24:34.729Z,168.75
2018-09-11T06:25:34.754Z,163.13
2018-09-11T06:26:34.771Z,157.50
2018-09-11T06:27:34.794Z,157.50
2018-09-11T06:28:34.821Z,157.50
2018-09-11T06:29:34.842Z,163.13
2018-09-11T06:30:34.873Z,168.75
2018-09-11T06:31:34.885Z,174.38
2018-09-11T06:32:34.962Z,174.38
2018-09-11T06:33:34.939Z,168.75
2018-09-11T06:34:34.958Z,174.38
2018-09-11T06:35:35.031Z,180.00
2018-09-11T06:36:34.999Z,191.25
2018-09-11T06:37:35.021Z,213.75
2018-09-11T06:38:35.047Z,213.75
2018-09-11T06:39:35.075Z,213.75
2018-09-11T06:40:35.095Z,230.63
2018-09-11T06:41:35.120Z,230.63
2018-09-11T06:42:35.141Z,247.50
2018-09-11T06:43:35.162Z,264.38
2018-09-11T06:44:35.247Z,264.38
2018-09-11T06:45:35.208Z,253.13
2018-09-11T06:46:35.231Z,253.13
2018-09-11T06:47:35.265Z,247.50
2018-09-11T06:48:35.289Z,230.63
2018-09-11T06:49:35.304Z,208.13
2018-09-11T06:50:35.332Z,191.25
2018-09-11T06:51:35.349Z,196.88
2018-09-11T06:52:35.368Z,230.63
2018-09-11T06:53:35.399Z,264.38
2018-09-11T06:54:35.471Z,315.00
2018-09-11T06:55:35.446Z,376.88
2018-09-11T06:56:35.463Z,376.88
2018-09-11T06:57:35.490Z,365.63
2018-09-11T06:58:35.514Z,337.50
2018-09-11T06:59:35.533Z,315.00
2018-09-11T07:00:35.659Z,309.38
2018-09-11T07:01:35.582Z,337.50
2018-09-11T07:02:35.606Z,337.50
2018-09-11T07:03:35.631Z,331.88
2018-09-11T07:04:35.658Z,331.88
2018-09-11T07:05:35.681Z,326.25
2018-09-11T07:06:35.701Z,320.63
2018-09-11T07:07:35.727Z,309.38
2018-09-11T07:08:35.829Z,315.00
2018-09-11T07:09:35.767Z,331.88
2018-09-11T07:10:35.789Z,354.38
2018-09-11T07:11:35.819Z,365.63
2018-09-11T07:12:35.844Z,360.00
2018-09-11T07:13:35.867Z,371.25
2018-09-11T07:14:35.906Z,382.50
2018-09-11T07:15:35.912Z,382.50
2018-09-11T07:16:35.942Z,410.63
2018-09-11T07:17:35.960Z,416.25
2018-09-11T07:18:35.988Z,438.75
2018-09-11T07:19:36.026Z,461.25
2018-09-11T07:20:36.037Z,472.50
2018-09-11T07:21:36.052Z,478.13
2018-09-11T07:22:36.081Z,472.50
2018-09-11T07:23:36.105Z,495.00
2018-09-11T07:24:36.127Z,489.38
2018-09-11T07:25:36.153Z,489.38
2018-09-11T07:26:36.176Z,489.38
2018-09-11T07:27:36.201Z,495.00
2018-09-11T07:28:36.229Z,483.75
2018-09-11T07:29:36.252Z,466.88
2018-09-11T07:30:36.273Z,450.00
2018-09-11T07:31:36.293Z,427.50
2018-09-11T07:32:36.317Z,399.38
2018-09-11T07:33:36.339Z,382.50
2018-09-11T07:34:36.363Z,393.75
2018-09-11T07:35:36.396Z,410.63
2018-09-11T07:36:36.419Z,421.88
2018-09-11T07:37:36.435Z,421.88
2018-09-11T07:38:36.467Z,416.25
2018-09-11T07:39:36.491Z,410.63
2018-09-11T07:40:36.509Z,405.00
2018-09-11T07:41:36.528Z,438.75
2018-09-11T07:42:36.554Z,433.13
2018-09-11T07:43:36.581Z,416.25
2018-09-11T07:44:36.609Z,399.38
2018-09-11T07:45:36.832Z,393.75
2018-09-11T07:46:36.654Z,360.00
2018-09-11T07:47:36.677Z,331.88
2018-09-11T07:48:36.709Z,315.00
2018-09-11T07:49:36.727Z,298.13
2018-09-11T07:50:36.751Z,286.88
2018-09-11T07:51:36.778Z,258.75
2018-09-11T07:52:36.866Z,241.88
2018-09-11T07:53:36.827Z,253.13
2018-09-11T07:54:36.847Z,264.38
2018-09-11T07:55:36.879Z,264.38
2018-09-11T07:56:36.897Z,309.38
2018-09-11T07:57:36.972Z,376.88
2018-09-11T07:58:36.948Z,421.88
2018-09-11T07:59:36.971Z,495.00
2018-09-11T08:00:36.991Z,540.00
2018-09-11T08:01:37.009Z,545.63
2018-09-11T08:02:37.036Z,545.63
2018-09-11T08:03:37.059Z,551.25
2018-09-11T08:04:37.089Z,562.50
2018-09-11T08:05:37.107Z,568.13
2018-09-11T08:06:37.133Z,556.88
2018-09-11T08:07:37.157Z,534.38
2018-09-11T08:08:37.178Z,540.00
2018-09-11T08:09:37.249Z,545.63
2018-09-11T08:10:37.268Z,562.50
2018-09-11T08:11:37.253Z,601.88
2018-09-11T08:12:37.279Z,607.50
2018-09-11T08:13:37.307Z,596.25
2018-09-11T08:14:37.323Z,579.38
2018-09-11T08:15:37.350Z,573.75
2018-09-11T08:16:37.378Z,601.88
2018-09-11T08:17:37.393Z,601.88
2018-09-11T08:18:37.417Z,641.25
2018-09-11T08:19:37.462Z,669.38
2018-09-11T08:20:37.473Z,624.38
2018-09-11T08:21:37.496Z,551.25
2018-09-11T08:22:37.531Z,495.00
2018-09-11T08:23:37.544Z,438.75
2018-09-11T08:24:37.575Z,382.50
2018-09-11T08:25:37.597Z,405.00
2018-09-11T08:26:37.615Z,438.75
2018-09-11T08:27:37.643Z,573.75
2018-09-11T08:28:37.673Z,624.38
2018-09-11T08:29:37.688Z,601.88
2018-09-11T08:30:37.712Z,686.25
2018-09-11T08:31:37.737Z,635.63
2018-09-11T08:32:37.756Z,562.50
2018-09-11T08:33:37.785Z,466.88
2018-09-11T08:34:37.811Z,438.75
2018-09-11T08:35:37.832Z,416.25
2018-09-11T08:36:37.857Z,472.50
2018-09-11T08:37:37.882Z,472.50
2018-09-11T08:38:37.913Z,528.75
2018-09-11T08:39:37.931Z,585.00
2018-09-11T08:40:37.965Z,540.00
2018-09-11T08:41:37.987Z,534.38
2018-09-11T08:42:38.007Z,562.50
2018-09-11T08:43:38.028Z,613.13
2018-09-11T08:44:38.059Z,613.13
2018-09-11T08:45:38.086Z,680.63
2018-09-11T08:46:38.133Z,697.50
2018-09-11T08:47:38.130Z,686.25
2018-09-11T08:48:38.163Z,646.88
2018-09-11T08:49:38.183Z,635.63
2018-09-11T08:50:38.207Z,573.75
2018-09-11T08:51:38.227Z,573.75
2018-09-11T08:52:38.321Z,523.13
2018-09-11T08:53:38.281Z,556.88
2018-09-11T08:54:38.301Z,618.75
2018-09-11T08:55:38.320Z,601.88
2018-09-11T08:56:38.403Z,483.75
2018-09-11T08:57:38.375Z,433.13
2018-09-11T08:58:38.487Z,427.50
2018-09-11T08:59:38.426Z,450.00
2018-09-11T09:00:38.451Z,511.88
2018-09-11T09:01:38.474Z,663.75
2018-09-11T09:02:38.498Z,748.13
2018-09-11T09:03:38.510Z,753.75
2018-09-11T09:04:38.534Z,821.25
2018-09-11T09:05:38.571Z,905.63
2018-09-11T09:06:38.617Z,888.75
2018-09-11T09:07:38.614Z,871.88
2018-09-11T09:08:38.642Z,849.38
2018-09-11T09:09:38.667Z,810.00
2018-09-11T09:10:38.699Z,691.88
2018-09-11T09:11:38.719Z,641.25
2018-09-11T09:12:38.744Z,793.13
2018-09-11T09:13:38.763Z,900.00
2018-09-11T09:14:38.790Z,871.88
2018-09-11T09:15:38.877Z,849.38
2018-09-11T09:16:38.844Z,928.13
2018-09-11T09:17:38.865Z,922.50
2018-09-11T09:18:38.893Z,905.63
2018-09-11T09:19:38.919Z,939.38
2018-09-11T09:20:38.946Z,950.63
2018-09-11T09:21:38.971Z,916.88
2018-09-11T09:22:39.031Z,911.25
2018-09-11T09:23:39.019Z,855.00
2018-09-11T09:24:39.046Z,900.00
2018-09-11T09:25:39.073Z,967.50
2018-09-11T09:26:39.094Z,905.63
2018-09-11T09:27:39.178Z,765.00
2018-09-11T09:28:39.149Z,742.50
2018-09-11T09:29:39.169Z,770.63
2018-09-11T09:30:39.203Z,725.63
2018-09-11T09:31:39.218Z,691.88
2018-09-11T09:32:39.249Z,675.00
2018-09-11T09:33:39.267Z,697.50
2018-09-11T09:34:39.303Z,635.63
2018-09-11T09:35:39.326Z,545.63
2018-09-11T09:36:39.459Z,556.88
2018-09-11T09:37:39.377Z,635.63
2018-09-11T09:38:39.418Z,680.63
2018-09-11T09:39:39.427Z,765.00
2018-09-11T09:40:39.453Z,866.25
2018-09-11T09:41:39.481Z,1029.38
2018-09-11T09:42:39.510Z,950.63
2018-09-11T09:43:39.539Z,866.25
2018-09-11T09:44:39.556Z,866.25
2018-09-11T09:45:39.576Z,984.38
2018-09-11T09:46:39.596Z,883.13
2018-09-11T09:47:39.630Z,1102.50
2018-09-11T09:48:39.652Z,1063.13
2018-09-11T09:49:39.701Z,1085.63
2018-09-11T09:50:39.774Z,995.63
2018-09-11T09:51:39.738Z,838.13
2018-09-11T09:52:39.760Z,871.88
2018-09-11T09:53:39.796Z,871.88
2018-09-11T09:54:39.804Z,883.13
2018-09-11T09:55:39.844Z,888.75
2018-09-11T09:56:39.865Z,945.00
2018-09-11T09:57:39.886Z,1012.50
2018-09-11T09:58:39.921Z,1035.00
2018-09-11T09:59:39.945Z,1085.63
2018-09-11T10:00:39.960Z,1220.63
2018-09-11T10:01:39.993Z,1243.13
2018-09-11T10:02:40.017Z,1321.88
2018-09-11T10:03:40.046Z,1316.25
2018-09-11T10:04:40.109Z,1361.25
2018-09-11T10:05:40.098Z,1316.25
2018-09-11T10:06:40.127Z,1153.13
2018-09-11T10:07:40.148Z,1001.25
2018-09-11T10:08:40.178Z,978.75
2018-09-11T10:09:40.199Z,1068.75
2018-09-11T10:10:40.233Z,1231.88
2018-09-11T10:11:40.295Z,1366.88
2018-09-11T10:12:40.283Z,1423.13
2018-09-11T10:13:40.316Z,1372.50
2018-09-11T10:14:40.335Z,1440.00
2018-09-11T10:15:40.362Z,1411.88
2018-09-11T10:16:40.385Z,1395.00
2018-09-11T10:17:40.472Z,1350.00
2018-09-11T10:18:40.437Z,1215.00
2018-09-11T10:19:40.473Z,1237.50
2018-09-11T10:20:40.494Z,1237.50
2018-09-11T10:21:40.526Z,1496.25
2018-09-11T10:22:40.545Z,1344.38
2018-09-11T10:23:40.577Z,1321.88
2018-09-11T10:24:40.619Z,1141.88
2018-09-11T10:25:40.625Z,860.63
2018-09-11T10:26:40.657Z,810.00
2018-09-11T10:27:40.685Z,1085.63
2018-09-11T10:28:40.710Z,1248.75
2018-09-11T10:29:40.736Z,720.00
2018-09-11T10:30:40.765Z,658.13
2018-09-11T10:31:40.793Z,742.50
2018-09-11T10:32:40.822Z,967.50
2018-09-11T10:33:40.861Z,1305.00
2018-09-11T10:34:40.881Z,1293.75
2018-09-11T10:35:40.902Z,1406.25
2018-09-11T10:36:40.925Z,1220.63
2018-09-11T10:37:40.952Z,1231.88
2018-09-11T10:38:40.979Z,1085.63
2018-09-11T10:39:41.006Z,1018.13
2018-09-11T10:40:41.031Z,1186.88
2018-09-11T10:41:41.061Z,1125.00
2018-09-11T10:42:41.080Z,1215.00
2018-09-11T10:43:41.113Z,1119.38
2018-09-11T10:44:41.140Z,1125.00
2018-09-11T10:45:41.163Z,1175.63
2018-09-11T10:46:41.192Z,1428.75
2018-09-11T10:47:41.219Z,1423.13
2018-09-11T10:48:41.312Z,1175.63
2018-09-11T10:49:41.278Z,956.25
2018-09-11T10:50:41.304Z,916.88
2018-09-11T10:51:41.376Z,787.50
2018-09-11T10:52:41.358Z,686.25
2018-09-11T10:53:41.384Z,624.38
2018-09-11T10:54:41.410Z,579.38
2018-09-11T10:55:41.438Z,618.75
2018-09-11T10:56:41.464Z,708.75
2018-09-11T10:57:41.488Z,815.63
2018-09-11T10:58:41.517Z,798.75
2018-09-11T10:59:41.552Z,765.00
2018-09-11T11:00:41.568Z,810.00
2018-09-11T11:01:41.602Z,748.13
2018-09-11T11:02:41.629Z,765.00
2018-09-11T11:03:41.645Z,714.38
2018-09-11T11:04:41.675Z,697.50
2018-09-11T11:05:41.708Z,990.00
2018-09-11T11:06:41.724Z,1068.75
2018-09-11T11:07:41.758Z,810.00
2018-09-11T11:08:41.779Z,821.25
2018-09-11T11:09:41.812Z,748.13
2018-09-11T11:10:41.834Z,630.00
2018-09-11T11:11:41.861Z,450.00
2018-09-11T11:12:41.885Z,438.75
2018-09-11T11:13:41.919Z,596.25
2018-09-11T11:14:41.944Z,810.00
2018-09-11T11:15:41.965Z,1035.00
2018-09-11T11:16:41.997Z,1400.63
2018-09-11T11:17:42.019Z,1181.25
2018-09-11T11:18:42.052Z,1012.50
2018-09-11T11:19:42.073Z,1040.63
2018-09-11T11:20:42.146Z,1113.75
2018-09-11T11:21:42.124Z,961.88
2018-09-11T11:22:42.174Z,877.50
2018-09-11T11:23:42.182Z,618.75
2018-09-11T11:24:42.208Z,630.00
2018-09-11T11:25:42.232Z,601.88
2018-09-11T11:26:42.252Z,579.38
2018-09-11T11:27:42.289Z,607.50
2018-09-11T11:28:42.314Z,810.00
2018-09-11T11:29:42.335Z,1080.00
2018-09-11T11:30:42.362Z,1063.13
2018-09-11T11:31:42.387Z,1209.38
2018-09-11T11:32:42.408Z,1417.50
2018-09-11T11:33:42.440Z,1282.50
2018-09-11T11:34:42.467Z,1085.63
2018-09-11T11:35:42.499Z,1051.88
2018-09-11T11:36:42.634Z,978.75
2018-09-11T11:37:42.554Z,1147.50
2018-09-11T11:38:42.576Z,815.63
2018-09-11T11:39:42.600Z,1023.75
2018-09-11T11:40:42.623Z,1096.88
2018-09-11T11:41:42.675Z,1119.38
2018-09-11T11:42:42.690Z,995.63
2018-09-11T11:43:42.711Z,1068.75
2018-09-11T11:44:42.742Z,1338.75
2018-09-11T11:45:42.761Z,1254.38
2018-09-11T11:46:42.792Z,1231.88
2018-09-11T11:47:42.813Z,1018.13
2018-09-11T11:48:42.839Z,894.38
2018-09-11T11:49:42.868Z,1130.63
2018-09-11T11:50:42.905Z,1102.50
2018-09-11T11:51:42.924Z,967.50
2018-09-11T11:52:42.948Z,720.00
2018-09-11T11:53:42.974Z,686.25
2018-09-11T11:54:43.039Z,703.13
2018-09-11T11:55:43.037Z,601.88
2018-09-11T11:56:43.056Z,517.50
2018-09-11T11:57:43.092Z,495.00
2018-09-11T11:58:43.112Z,410.63
2018-09-11T11:59:43.176Z,348.75
2018-09-11T12:00:43.160Z,360.00
2018-09-11T12:01:43.192Z,343.13
2018-09-11T12:02:43.222Z,348.75
2018-09-11T12:03:43.246Z,320.63
2018-09-11T12:04:43.276Z,281.25
2018-09-11T12:05:43.297Z,309.38
2018-09-11T12:06:43.322Z,303.75
2018-09-11T12:07:43.428Z,253.13
2018-09-11T12:08:43.381Z,247.50
2018-09-11T12:09:43.411Z,292.50
2018-09-11T12:10:43.431Z,320.63
2018-09-11T12:11:43.457Z,331.88
2018-09-11T12:12:43.482Z,348.75
2018-09-11T12:13:43.507Z,315.00
2018-09-11T12:14:43.538Z,286.88
2018-09-11T12:15:43.561Z,286.88
2018-09-11T12:16:43.587Z,320.63
2018-09-11T12:17:43.612Z,360.00
2018-09-11T12:18:43.631Z,337.50
2018-09-11T12:19:43.658Z,292.50
2018-09-11T12:20:43.698Z,286.88
2018-09-11T12:21:43.714Z,331.88
2018-09-11T12:22:43.740Z,416.25
2018-09-11T12:23:43.765Z,405.00
2018-09-11T12:24:43.786Z,438.75
2018-09-11T12:25:43.816Z,489.38
2018-09-11T12:26:43.889Z,478.13
2018-09-11T12:27:43.867Z,528.75
2018-09-11T12:28:43.918Z,590.63
2018-09-11T12:29:43.917Z,624.38
2018-09-11T12:30:43.949Z,506.25
2018-09-11T12:31:43.974Z,388.13
2018-09-11T12:32:44.000Z,331.88
2018-09-11T12:33:44.030Z,309.38
2018-09-11T12:34:44.052Z,320.63
2018-09-11T12:35:44.087Z,371.25
2018-09-11T12:36:44.101Z,388.13
2018-09-11T12:37:44.130Z,433.13
2018-09-11T12:38:44.200Z,528.75
2018-09-11T12:39:44.176Z,596.25
2018-09-11T12:40:44.210Z,641.25
2018-09-11T12:41:44.239Z,590.63
2018-09-11T12:42:44.257Z,646.88
2018-09-11T12:43:44.282Z,894.38
2018-09-11T12:44:44.304Z,922.50
2018-09-11T12:45:44.398Z,956.25
2018-09-11T12:46:44.647Z,995.63
2018-09-11T12:47:44.847Z,916.88
2018-09-11T12:48:44.478Z,866.25
2018-09-11T12:49:44.445Z,793.13
2018-09-11T12:50:44.461Z,669.38